Dallas, Texas
Traffic Map
Current Weather Conditions
Dallas, Texas
Clear
Clear
83°
Feels Like: 88°
Wind Chill: 83° Ceiling: Unl
Heat Index: 88° Visibility: 10mi
Dew Point: 71° Wind: 16mph
Humidity: 67% Direction: 160° (SSE)
Pressure: 29.97in Gusts: 25mph
Raw Report DataKDAL 210553Z 16014G22KT 10SM CLR 28/22 A2997 RMK AO2 SLP138 T02830217 10356 20283 403670261 51009
Traffic Incident Summary
Active as of:
Severity:
Category:
InformationThere was an issue retrieving the traffic information for this location. Please try a different location or try again shortly.
Advertisements
Track Severe Weather on mobile